createdAt,value
2019-04-22T00:01:31.166Z,16.40
2019-04-22T00:04:10.030Z,19.43
2019-04-22T00:07:01.351Z,18.90
2019-04-22T00:09:39.974Z,19.13
2019-04-22T00:12:14.567Z,17.07
2019-04-22T00:14:43.839Z,24.03
2019-04-22T00:17:25.059Z,24.17
2019-04-22T00:19:57.568Z,23.10
2019-04-22T00:22:27.414Z,28.17
2019-04-22T00:25:10.663Z,24.83
2019-04-22T00:30:13.810Z,25.10
2019-04-22T00:33:02.812Z,27.17
2019-04-22T00:35:35.461Z,29.27
2019-04-22T00:38:20.316Z,26.93
2019-04-22T00:43:24.403Z,27.63
2019-04-22T00:45:57.768Z,28.20
2019-04-22T00:48:57.862Z,22.67
2019-04-22T00:51:13.917Z,20.30
2019-04-22T00:53:39.191Z,20.70
2019-04-22T00:58:48.384Z,15.77
2019-04-22T01:01:26.627Z,22.40
2019-04-22T01:06:25.832Z,16.47
2019-04-22T01:09:07.145Z,21.77
2019-04-22T01:11:33.525Z,19.20
2019-04-22T01:14:07.423Z,17.00
2019-04-22T01:16:48.545Z,16.83
2019-04-22T01:19:23.495Z,18.33
2019-04-22T01:21:56.376Z,20.60
2019-04-22T01:24:26.423Z,19.13
2019-04-22T01:26:58.137Z,19.00
2019-04-22T01:29:27.939Z,19.67
2019-04-22T01:31:50.707Z,22.30
2019-04-22T01:34:38.820Z,17.83
2019-04-22T01:37:13.739Z,18.97
2019-04-22T01:40:00.171Z,19.60
2019-04-22T01:42:32.654Z,20.10
2019-04-22T01:45:06.952Z,19.10
2019-04-22T01:47:36.373Z,20.20
2019-04-22T01:50:16.959Z,20.27
2019-04-22T01:52:47.326Z,21.67
2019-04-22T01:55:27.410Z,19.67
2019-04-22T01:57:47.528Z,19.53
2019-04-22T02:00:27.394Z,20.23
2019-04-22T02:03:07.251Z,19.47
2019-04-22T02:05:40.751Z,22.53
2019-04-22T02:08:19.870Z,23.73
2019-04-22T02:10:49.273Z,24.80
2019-04-22T02:13:26.884Z,25.97
2019-04-22T02:15:57.144Z,22.10
2019-04-22T02:18:31.915Z,19.80
2019-04-22T02:21:01.465Z,20.10
2019-04-22T02:26:25.588Z,17.70
2019-04-22T02:28:39.914Z,17.60
2019-04-22T02:31:26.016Z,15.17
2019-04-22T02:34:08.999Z,13.33
2019-04-22T02:36:30.262Z,14.53
2019-04-22T02:41:32.469Z,16.67
2019-04-22T02:51:44.949Z,20.43
2019-04-22T02:57:04.546Z,20.43
2019-04-22T02:59:34.549Z,18.47
2019-04-22T03:04:47.226Z,18.83
2019-04-22T03:07:12.794Z,18.70
2019-04-22T03:12:26.990Z,20.23
2019-04-22T03:15:00.064Z,20.27
2019-04-22T03:17:38.953Z,18.27
2019-04-22T03:20:22.076Z,16.27
2019-04-22T03:22:47.398Z,16.67
2019-04-22T03:43:13.621Z,20.43
2019-04-22T03:45:40.105Z,17.43
2019-04-22T03:48:15.888Z,16.23
2019-04-22T03:50:59.355Z,19.00
2019-04-22T03:56:30.974Z,17.60
2019-04-22T03:58:41.069Z,19.03
2019-04-22T04:01:18.439Z,16.77
2019-04-22T04:03:57.840Z,18.70
2019-04-22T04:06:22.978Z,17.73
2019-04-22T04:11:38.568Z,18.10
2019-04-22T04:14:12.309Z,16.60
2019-04-22T04:16:39.242Z,18.20
2019-04-22T04:21:40.672Z,16.67
2019-04-22T04:24:42.283Z,18.50
2019-04-22T04:27:10.951Z,13.77
2019-04-22T04:32:18.749Z,16.47
2019-04-22T04:34:56.266Z,16.97
2019-04-22T04:37:22.644Z,15.03
2019-04-22T04:47:44.113Z,14.27
2019-04-22T04:52:50.827Z,12.57
2019-04-22T04:55:18.052Z,12.40
2019-04-22T04:57:54.396Z,16.37
2019-04-22T05:05:29.365Z,13.07
2019-04-22T05:07:55.394Z,12.43
2019-04-22T05:10:44.986Z,12.00
2019-04-22T05:13:06.715Z,10.60
2019-04-22T05:20:57.146Z,10.13
2019-04-22T05:23:28.874Z,13.33
2019-04-22T05:25:55.114Z,10.00
2019-04-22T05:28:27.075Z,14.37
2019-04-22T05:31:05.045Z,14.23
2019-04-22T05:33:32.093Z,13.17
2019-04-22T05:36:10.587Z,11.77
2019-04-22T05:38:42.773Z,11.67
2019-04-22T05:41:08.934Z,14.03
2019-04-22T05:43:50.221Z,13.27
2019-04-22T05:46:15.375Z,14.97
2019-04-22T05:49:15.035Z,12.10
2019-04-22T05:51:31.416Z,11.70
2019-04-22T05:54:03.743Z,12.00
2019-04-22T05:56:37.160Z,13.53
2019-04-22T05:59:15.867Z,10.90
2019-04-22T06:01:55.112Z,10.23
2019-04-22T06:04:19.926Z,10.93
2019-04-22T06:06:46.967Z,12.40
2019-04-22T06:09:33.517Z,11.13
2019-04-22T06:12:01.257Z,10.70
2019-04-22T06:14:34.282Z,9.40
2019-04-22T06:17:12.396Z,13.27
2019-04-22T06:19:49.073Z,10.23
2019-04-22T06:22:30.539Z,9.00
2019-04-22T06:24:55.318Z,9.30
2019-04-22T06:27:30.784Z,11.40
2019-04-22T06:30:07.720Z,8.90
2019-04-22T06:32:34.591Z,9.93
2019-04-22T06:35:19.770Z,11.03
2019-04-22T06:37:55.025Z,10.67
2019-04-22T06:40:24.855Z,10.07
2019-04-22T06:42:58.594Z,9.97
2019-04-22T06:45:25.886Z,9.60
2019-04-22T06:48:06.771Z,13.13
2019-04-22T06:50:38.453Z,11.53
2019-04-22T06:53:23.949Z,10.57
2019-04-22T06:55:44.337Z,9.23
2019-04-22T06:58:15.281Z,9.20
2019-04-22T07:00:44.466Z,10.67
2019-04-22T07:05:57.021Z,11.93
2019-04-22T07:11:04.627Z,9.70
2019-04-22T07:13:43.982Z,9.37
2019-04-22T07:16:13.723Z,10.30
2019-04-22T07:19:02.176Z,10.10
2019-04-22T07:21:25.973Z,8.90
2019-04-22T07:26:24.953Z,9.67
2019-04-22T07:29:01.710Z,10.07
2019-04-22T07:31:34.164Z,8.87
2019-04-22T07:34:17.873Z,8.77
2019-04-22T07:39:15.639Z,8.83
2019-04-22T07:41:51.507Z,8.97
2019-04-22T07:47:08.392Z,9.97
2019-04-22T07:49:39.214Z,8.87
2019-04-22T07:52:09.749Z,8.87
2019-04-22T07:54:43.450Z,7.90
2019-04-22T07:57:19.918Z,7.30
2019-04-22T07:59:54.105Z,7.57
2019-04-22T08:02:30.685Z,8.17
2019-04-22T08:05:05.320Z,6.83
2019-04-22T08:07:34.609Z,7.97
2019-04-22T08:10:14.287Z,6.47
2019-04-22T08:12:45.672Z,8.43
2019-04-22T08:15:16.685Z,6.93
2019-04-22T08:20:22.625Z,6.70
2019-04-22T08:23:01.271Z,5.33
2019-04-22T08:25:27.185Z,5.77
2019-04-22T08:28:03.316Z,7.00
2019-04-22T08:30:41.417Z,7.30
2019-04-22T08:33:16.011Z,5.20
2019-04-22T08:36:02.097Z,7.43
2019-04-22T08:41:24.177Z,7.97
2019-04-22T08:46:29.862Z,7.37
2019-04-22T08:51:31.009Z,8.43
2019-04-22T08:54:04.936Z,6.13
2019-04-22T08:56:37.717Z,4.43
2019-04-22T08:59:12.339Z,5.57
2019-04-22T09:01:43.501Z,4.97
2019-04-22T09:04:16.601Z,5.77
2019-04-22T09:07:10.449Z,5.37
2019-04-22T09:09:34.001Z,5.77
2019-04-22T09:12:08.217Z,6.77
2019-04-22T09:14:44.562Z,6.33
2019-04-22T09:17:14.688Z,6.47
2019-04-22T09:19:47.809Z,4.90
2019-04-22T09:22:16.957Z,5.63
2019-04-22T09:24:51.768Z,8.73
2019-04-22T09:27:33.160Z,5.80
2019-04-22T09:30:01.259Z,6.33
2019-04-22T09:32:38.775Z,6.90
2019-04-22T09:35:09.479Z,8.37
2019-04-22T09:37:56.005Z,8.13
2019-04-22T09:40:18.389Z,7.10
2019-04-22T09:42:53.028Z,7.57
2019-04-22T09:45:21.752Z,12.57
2019-04-22T09:48:03.234Z,7.93
2019-04-22T09:50:38.348Z,8.73
2019-04-22T09:53:08.290Z,7.03
2019-04-22T09:55:41.677Z,6.43
2019-04-22T09:58:20.738Z,9.20
2019-04-22T10:01:18.654Z,9.33
2019-04-22T10:03:44.545Z,6.87
2019-04-22T10:09:13.060Z,8.87
2019-04-22T10:14:01.654Z,8.43
2019-04-22T10:16:39.419Z,7.03
2019-04-22T10:21:46.337Z,7.20
2019-04-22T10:24:13.851Z,8.43
2019-04-22T10:29:41.667Z,7.33
2019-04-22T10:31:57.229Z,7.43
2019-04-22T10:34:16.748Z,8.20
2019-04-22T10:36:39.895Z,8.93
2019-04-22T10:39:13.608Z,6.87
2019-04-22T10:41:46.438Z,6.73
2019-04-22T10:44:19.193Z,10.50
2019-04-22T10:46:51.953Z,9.47
2019-04-22T10:49:24.603Z,7.60
2019-04-22T10:51:58.277Z,6.10
2019-04-22T10:54:31.494Z,8.17
2019-04-22T10:57:03.807Z,8.53
2019-04-22T10:59:36.413Z,7.67
2019-04-22T11:02:09.769Z,5.90
2019-04-22T11:04:42.048Z,5.83
2019-04-22T11:07:15.420Z,7.63
2019-04-22T11:09:57.111Z,7.67
2019-04-22T11:12:26.520Z,9.10
2019-04-22T11:14:58.094Z,6.07
2019-04-22T11:17:31.551Z,6.27
2019-04-22T11:20:04.020Z,6.93
2019-04-22T11:22:37.320Z,9.43
2019-04-22T11:25:11.898Z,7.30
2019-04-22T11:27:44.601Z,5.17
2019-04-22T11:30:21.903Z,9.30
2019-04-22T11:32:51.559Z,8.03
2019-04-22T11:35:23.921Z,6.50
2019-04-22T11:37:56.867Z,7.00
2019-04-22T11:40:36.157Z,6.33
2019-04-22T11:43:04.032Z,7.37
2019-04-22T11:45:37.367Z,7.23
2019-04-22T11:48:11.050Z,6.07
2019-04-22T11:50:44.288Z,4.67
2019-04-22T11:53:16.751Z,8.50
2019-04-22T11:55:49.090Z,10.30
2019-04-22T11:58:21.274Z,6.33
2019-04-22T12:00:55.195Z,5.23
2019-04-22T12:03:28.662Z,5.83
2019-04-22T12:06:02.097Z,5.83
2019-04-22T12:08:34.345Z,7.10
2019-04-22T12:11:08.002Z,7.63
2019-04-22T12:13:42.217Z,6.33
2019-04-22T12:16:14.456Z,7.40
2019-04-22T12:18:47.241Z,6.73
2019-04-22T12:21:19.561Z,6.73
2019-04-22T12:23:52.811Z,3.90
2019-04-22T12:26:26.911Z,6.87
2019-04-22T12:28:59.357Z,6.73
2019-04-22T12:31:31.671Z,5.93
2019-04-22T12:34:05.870Z,4.67
2019-04-22T12:36:38.522Z,6.30
2019-04-22T12:39:11.578Z,6.30
2019-04-22T12:41:44.403Z,4.53
2019-04-22T12:44:18.074Z,5.23
2019-04-22T12:46:50.381Z,6.20
2019-04-22T12:49:22.601Z,6.23
2019-04-22T12:51:54.881Z,8.03
2019-04-22T12:54:27.014Z,6.43
2019-04-22T12:56:59.814Z,7.80
2019-04-22T12:59:32.043Z,5.37
2019-04-22T13:02:04.987Z,4.90
2019-04-22T13:04:38.500Z,5.33
2019-04-22T13:07:11.556Z,7.77
2019-04-22T13:09:45.405Z,5.00
2019-04-22T13:12:19.255Z,5.70
2019-04-22T13:14:52.802Z,5.33
2019-04-22T13:17:25.333Z,6.17
2019-04-22T13:19:58.404Z,6.50
2019-04-22T13:22:32.560Z,5.43
2019-04-22T13:25:07.964Z,6.67
2019-04-22T13:27:40.081Z,6.53
2019-04-22T13:30:14.510Z,3.90
2019-04-22T13:32:47.115Z,5.27
2019-04-22T13:35:22.249Z,4.50
2019-04-22T13:37:55.013Z,5.13
2019-04-22T13:40:28.711Z,3.77
2019-04-22T13:43:01.066Z,4.93
2019-04-22T13:45:33.960Z,4.77
2019-04-22T13:48:26.725Z,2.93
2019-04-22T13:56:10.118Z,2.83
2019-04-22T13:58:35.584Z,2.53
2019-04-22T14:01:00.734Z,4.20
2019-04-22T14:03:52.291Z,2.83
2019-04-22T14:06:25.032Z,2.80
2019-04-22T14:08:58.752Z,3.63
2019-04-22T14:11:39.340Z,4.73
2019-04-22T14:14:05.352Z,3.37
2019-04-22T14:16:37.552Z,3.43
2019-04-22T14:19:10.064Z,3.20
2019-04-22T14:21:44.361Z,2.87
2019-04-22T14:24:17.835Z,3.67
2019-04-22T14:27:03.627Z,4.43
2019-04-22T14:29:24.153Z,3.60
2019-04-22T14:32:05.505Z,2.70
2019-04-22T14:34:30.842Z,4.10
2019-04-22T14:37:05.767Z,4.57
2019-04-22T14:39:38.068Z,4.07
2019-04-22T14:42:28.450Z,5.97
2019-04-22T14:45:20.228Z,4.20
2019-04-22T14:47:47.979Z,3.13
2019-04-22T14:50:12.378Z,7.50
2019-04-22T14:52:45.987Z,3.23
2019-04-22T14:55:09.170Z,4.20
2019-04-22T14:57:36.267Z,2.73
2019-04-22T15:00:09.776Z,3.57
2019-04-22T15:02:42.132Z,6.20
2019-04-22T15:05:18.239Z,2.93
2019-04-22T15:07:50.692Z,4.40
2019-04-22T15:10:24.264Z,4.30
2019-04-22T15:12:58.748Z,5.53
2019-04-22T15:15:51.535Z,4.17
2019-04-22T15:18:33.553Z,3.83
2019-04-22T15:21:14.816Z,4.20
2019-04-22T15:23:48.421Z,4.23
2019-04-22T15:26:22.271Z,4.00
2019-04-22T15:28:55.476Z,4.17
2019-04-22T15:31:29.055Z,2.37
2019-04-22T15:34:02.642Z,2.53
2019-04-22T15:36:35.921Z,5.53
2019-04-22T15:39:09.392Z,2.37
2019-04-22T15:41:50.395Z,1.97
2019-04-22T15:44:15.511Z,2.63
2019-04-22T15:46:48.860Z,5.40
2019-04-22T15:49:22.372Z,4.23
2019-04-22T15:51:57.551Z,1.70
2019-04-22T15:54:29.841Z,2.13
2019-04-22T15:57:02.605Z,1.40
2019-04-22T15:59:52.629Z,2.10
2019-04-22T16:02:10.078Z,4.33
2019-04-22T16:04:44.538Z,2.30
2019-04-22T16:07:17.166Z,2.40
2019-04-22T16:09:49.921Z,2.03
2019-04-22T16:12:30.352Z,2.23
2019-04-22T16:14:59.186Z,1.30
2019-04-22T16:17:30.832Z,7.50
2019-04-22T16:20:03.655Z,1.93
2019-04-22T16:22:55.094Z,1.57
2019-04-22T16:25:45.281Z,2.57
2019-04-22T16:28:17.609Z,1.97
2019-04-22T16:30:51.084Z,3.03
2019-04-22T16:33:23.514Z,6.63
2019-04-22T16:35:55.658Z,2.07
2019-04-22T16:38:28.865Z,2.57
2019-04-22T16:41:01.199Z,3.37
2019-04-22T16:43:33.311Z,3.93
2019-04-22T16:46:05.833Z,2.93
2019-04-22T16:48:39.817Z,7.97
2019-04-22T16:51:13.866Z,2.10
2019-04-22T16:53:49.592Z,1.70
2019-04-22T16:56:22.578Z,6.17
2019-04-22T16:58:54.958Z,5.57
2019-04-22T17:01:52.768Z,3.33
2019-04-22T17:04:38.675Z,3.13
2019-04-22T17:07:13.994Z,2.20
2019-04-22T17:09:46.212Z,4.13
2019-04-22T17:12:19.609Z,4.83
2019-04-22T17:14:56.757Z,7.33
2019-04-22T17:17:26.689Z,1.97
2019-04-22T17:19:59.630Z,3.40
2019-04-22T17:22:33.474Z,1.97
2019-04-22T17:25:08.501Z,3.50
2019-04-22T17:27:41.442Z,5.97
2019-04-22T17:30:16.924Z,4.90
2019-04-22T17:32:50.266Z,1.93
2019-04-22T17:35:24.217Z,3.03
2019-04-22T17:38:08.754Z,2.77
2019-04-22T17:40:49.566Z,3.47
2019-04-22T17:43:36.523Z,3.93
2019-04-22T17:46:23.394Z,2.60
2019-04-22T17:49:10.927Z,3.90
2019-04-22T17:52:04.713Z,3.50
2019-04-22T17:54:38.503Z,3.13
2019-04-22T17:57:09.817Z,4.30
2019-04-22T17:59:45.227Z,2.53
2019-04-22T18:02:15.376Z,8.83
2019-04-22T18:04:38.721Z,4.60
2019-04-22T18:07:45.772Z,2.20
2019-04-22T18:12:42.579Z,5.53
2019-04-22T18:15:16.213Z,6.30
2019-04-22T18:17:52.633Z,2.80
2019-04-22T18:20:17.513Z,3.13
2019-04-22T18:22:49.365Z,6.83
2019-04-22T18:25:24.221Z,5.53
2019-04-22T18:28:11.593Z,4.40
2019-04-22T18:30:33.478Z,3.27
2019-04-22T18:33:15.424Z,10.33
2019-04-22T18:35:44.508Z,4.67
2019-04-22T18:38:39.641Z,4.53
2019-04-22T18:40:59.035Z,4.47
2019-04-22T18:43:35.273Z,4.20
2019-04-22T18:46:11.190Z,5.60
2019-04-22T18:48:46.181Z,6.70
2019-04-22T18:51:24.906Z,4.10
2019-04-22T18:54:18.295Z,6.50
2019-04-22T18:56:50.413Z,5.77
2019-04-22T18:59:17.467Z,5.57
2019-04-22T19:01:43.905Z,5.97
2019-04-22T19:04:24.665Z,11.67
2019-04-22T19:07:17.287Z,4.27
2019-04-22T19:09:48.356Z,2.63
2019-04-22T19:14:59.041Z,3.80
2019-04-22T19:20:11.986Z,7.77
2019-04-22T19:22:45.512Z,3.53
2019-04-22T19:25:05.868Z,4.40
2019-04-22T19:27:42.275Z,3.60
2019-04-22T19:30:27.469Z,5.00
2019-04-22T19:33:04.074Z,7.57
2019-04-22T19:35:24.264Z,4.47
2019-04-22T19:37:57.400Z,5.63
2019-04-22T19:40:55.208Z,5.17
2019-04-22T19:43:27.471Z,4.30
2019-04-22T19:45:49.003Z,6.90
2019-04-22T19:48:35.863Z,5.07
2019-04-22T19:51:08.881Z,10.73
2019-04-22T19:53:38.817Z,12.47
2019-04-22T19:56:06.053Z,7.23
2019-04-22T19:58:41.367Z,4.20
2019-04-22T20:01:34.585Z,5.70
2019-04-22T20:04:39.783Z,8.63
2019-04-22T20:07:06.780Z,5.87
2019-04-22T20:09:43.771Z,6.50
2019-04-22T20:12:18.879Z,8.63
2019-04-22T20:14:49.435Z,4.97
2019-04-22T20:17:28.665Z,7.73
2019-04-22T20:20:06.359Z,7.93
2019-04-22T20:22:30.276Z,11.03
2019-04-22T20:24:56.459Z,8.30
2019-04-22T20:27:44.246Z,5.77
2019-04-22T20:30:17.288Z,14.40
2019-04-22T20:32:44.612Z,5.07
2019-04-22T20:35:30.915Z,6.47
2019-04-22T20:37:56.844Z,6.73
2019-04-22T20:40:34.763Z,4.80
2019-04-22T20:43:09.331Z,5.23
2019-04-22T20:45:39.745Z,4.60
2019-04-22T20:48:05.841Z,7.23
2019-04-22T20:50:48.079Z,6.93
2019-04-22T20:53:26.137Z,8.80
2019-04-22T20:56:00.645Z,8.60
2019-04-22T20:58:32.976Z,7.20
2019-04-22T21:00:56.812Z,6.57
2019-04-22T21:03:29.374Z,8.77
2019-04-22T21:06:11.746Z,7.93
2019-04-22T21:08:47.610Z,5.83
2019-04-22T21:11:19.656Z,6.40
2019-04-22T21:13:53.021Z,6.83
2019-04-22T21:16:34.255Z,6.00
2019-04-22T21:19:02.794Z,11.20
2019-04-22T21:21:37.987Z,9.03
2019-04-22T21:24:02.904Z,9.03
2019-04-22T21:26:43.744Z,6.70
2019-04-22T21:29:16.053Z,11.37
2019-04-22T21:31:54.554Z,10.13
2019-04-22T21:34:26.259Z,6.80
2019-04-22T21:37:07.957Z,5.97
2019-04-22T21:39:30.451Z,11.67
2019-04-22T21:42:06.343Z,10.87
2019-04-22T21:44:38.378Z,6.17
2019-04-22T21:47:26.958Z,5.23
2019-04-22T21:50:07.852Z,5.70
2019-04-22T21:52:28.140Z,7.10
2019-04-22T21:55:07.512Z,7.33
2019-04-22T21:58:02.618Z,7.00
2019-04-22T22:00:43.191Z,8.13
2019-04-22T22:03:13.128Z,7.17
2019-04-22T22:05:35.478Z,7.73
2019-04-22T22:08:23.107Z,7.37
2019-04-22T22:10:52.555Z,6.07
2019-04-22T22:13:30.140Z,8.80
2019-04-22T22:15:59.827Z,8.53
2019-04-22T22:18:30.317Z,7.43
2019-04-22T22:21:28.355Z,9.07
2019-04-22T22:23:42.449Z,5.30
2019-04-22T22:26:15.640Z,9.17
2019-04-22T22:29:02.432Z,10.13
2019-04-22T22:31:28.583Z,8.17
2019-04-22T22:34:01.865Z,6.40
2019-04-22T22:36:31.304Z,8.83
2019-04-22T22:39:03.197Z,8.33
2019-04-22T22:41:21.619Z,8.77
2019-04-22T22:44:04.408Z,8.77
2019-04-22T22:46:37.420Z,7.40
2019-04-22T22:49:23.013Z,9.10
2019-04-22T22:52:14.770Z,7.93
2019-04-22T22:54:34.423Z,12.07
2019-04-22T22:57:09.086Z,9.57
2019-04-22T22:59:40.265Z,9.87
2019-04-22T23:02:11.628Z,9.27
2019-04-22T23:04:45.931Z,13.73
2019-04-22T23:07:22.643Z,7.87
2019-04-22T23:09:53.789Z,6.87
2019-04-22T23:12:34.986Z,6.10
2019-04-22T23:14:58.998Z,9.60
2019-04-22T23:17:23.578Z,8.37
2019-04-22T23:19:52.794Z,8.77
2019-04-22T23:22:34.284Z,8.60
2019-04-22T23:25:24.806Z,9.17
2019-04-22T23:27:57.094Z,8.73
2019-04-22T23:30:40.071Z,9.03
2019-04-22T23:33:26.468Z,9.80
2019-04-22T23:36:06.416Z,8.57
2019-04-22T23:38:51.860Z,10.33
2019-04-22T23:44:21.000Z,10.23
2019-04-22T23:46:46.608Z,10.67
2019-04-22T23:49:17.417Z,12.40
2019-04-22T23:52:02.722Z,12.93
2019-04-22T23:54:38.870Z,10.60
2019-04-22T23:57:02.038Z,12.60
